Fort Collins-Loveland Municipal Airport

Airport
ICAO code: 
KFNL
Summary
ICAO Region: 
NAM
Territory: 
Location: 
Fort Collins / Loveland, Colorado,
Elevation: 
5016 ft
Coordinates: 
Aerial View: 
40° 26' 51.472" N, 105° 0' 39.193" W
Airport RE: 
Hot and High Operations
Airport WX: 
Mountain Waves
Metar
Observation
KFNL 021556Z 00000KT 10SM CLR 08/M04 A3014 RMK AO2 SLP185 T00781039
Station
Fort Collins/Loveland, Fort Collins-Loveland Municipal Airport
Date/Time
2021-12-02 15:56:00
Wind direction
Wind speed
00 kts
Lowest cloud amount
n/a
Temperature
7.8°C
Dew point
-3.9°C
Humidity
43%
Weather condition
n/a

Description

Fort Collins–Loveland Municipal Airport is a public airport located 14 km southeast of Fort Collins and northeast of Loveland, in Larimer County, Colorado

Climatology

Cold Semi-arid climate (Köppen climate classification BSk). - Hot, sometimes extremely hot summers and cold, sometimes very cold winters. Some snowfall during the winter. Areas featuring cold semi-arid climates are sometimes subject to major temperature swings during a 24 hour period.

Runways

Designator Length Width Surface Rops
6/24 693 12 ASP Yes/Yes
15/33 2591 30 ASP Yes/Yes
Airport map: 
Aerial View: 

SKYbrary Partners:

Safety knowledge contributed by: